LTAT/MLX METAR and TAF weather

Enter ICAO airport designator
Station Type Date Time Source
LTAT METAR 2019/11/18 03:50 UTC NOAA

LTAT 180350Z 21007KT CAVOK M03/M04 Q1026 NOSIG


Station Type Date Time Source
LTAT Decoded METAR 2019/11/18 03:50 UTC NOAA

Malatya / Erhac, Turkey (LTAT) 38-26N 038-05E 849M
Nov 17, 2019 - 10:50 PM EST / 2019.11.18 0350 UTC
Wind: from the SSW (210 degrees) at 8 MPH (7 KT):0
Visibility: greater than 7 mile(s):0
Temperature: 26 F (-3 C)
Windchill: 17 F (-8 C):1
Dew Point: 24 F (-4 C)
Relative Humidity: 92%
Pressure (altimeter): 30.30 in. Hg (1026 hPa)
ob: LTAT 180350Z 21007KT CAVOK M03/M04 Q1026 NOSIG
cycle: 4

Station Type Date Time Source
LTAT TAF 2019/11/17 18:03 UTC NOAA

TAF LTAT 171640Z 1718/1818 VRB02KT CAVOK

Example: see airport list